Time;durP1;ratioP1;P1;durP2;ratioP2;P2;SDS_P1;SDS_P2;PMS_P1;PMS_P2;Temp;Humidity;BMP_temperature;BMP_pressure;BME280_temperature;BME280_humidity;BME280_pressure;Samples;Min_cycle;Max_cycle;Signal;HPM_P1;HPM_P2
2021/10/13 00:01:22;;;;;;;6.92;4.45;;;;;;;4.66;96.98;99965.01;1723155;83;21021;-91
2021/10/13 00:03:48;;;;;;;12.43;4.67;;;;;;;4.62;96.56;99964.80;1723559;82;21002;-90
2021/10/13 00:06:14;;;;;;;6.72;4.30;;;;;;;4.56;96.62;99967.73;1723648;83;21066;-90
2021/10/13 00:08:40;;;;;;;6.87;4.40;;;;;;;4.51;96.63;99964.98;1723318;83;20977;-90
2021/10/13 00:11:06;;;;;;;5.45;4.42;;;;;;;4.49;97.03;99972.91;1674745;85;21079;-90
2021/10/13 00:13:32;;;;;;;6.70;4.25;;;;;;;4.46;97.04;99963.93;1703632;84;21043;-89
2021/10/13 00:15:59;;;;;;;7.30;4.53;;;;;;;4.45;97.22;99969.63;1703830;83;21430;-90
2021/10/13 00:18:25;;;;;;;8.88;5.22;;;;;;;4.44;97.41;99971.86;1703142;83;21489;-88
2021/10/13 00:20:51;;;;;;;7.25;4.28;;;;;;;4.42;97.30;99975.01;1733240;83;21071;-89
2021/10/13 00:23:17;;;;;;;9.33;4.42;;;;;;;4.41;97.44;99967.27;1720461;83;21474;-90
2021/10/13 00:25:43;;;;;;;6.67;4.35;;;;;;;4.40;97.60;99970.31;1692938;85;20993;-90
2021/10/13 00:28:09;;;;;;;5.85;3.80;;;;;;;4.41;97.61;99972.49;1692987;84;20989;-89
2021/10/13 00:30:35;;;;;;;7.95;4.55;;;;;;;4.41;97.65;99979.86;1702326;83;21017;-90
2021/10/13 00:33:01;;;;;;;6.12;3.95;;;;;;;4.41;97.50;99967.27;1723478;83;20989;-90
2021/10/13 00:35:27;;;;;;;6.70;4.47;;;;;;;4.42;97.60;99968.95;1675238;85;21044;-90
2021/10/13 00:37:53;;;;;;;7.97;4.00;;;;;;;4.42;97.55;99970.25;1732836;83;21458;-90
2021/10/13 00:40:19;;;;;;;7.67;4.47;;;;;;;4.43;97.68;99971.46;1723453;83;21070;-90
2021/10/13 00:42:45;;;;;;;6.12;3.55;;;;;;;4.43;97.49;99971.92;1723274;82;21511;-90
2021/10/13 00:45:11;;;;;;;7.83;3.70;;;;;;;4.43;97.50;99973.23;1668906;85;20974;-90
2021/10/13 00:47:37;;;;;;;7.53;4.00;;;;;;;4.45;97.57;99983.16;1703573;84;21019;-90
2021/10/13 00:50:10;;;;;;;6.78;4.20;;;;;;;4.45;97.65;99980.08;1703612;84;21011;-90
2021/10/13 00:52:40;;;;;;;5.65;3.33;;;;;;;4.45;97.48;99972.70;1732084;83;20999;-89
2021/10/13 00:55:11;;;;;;;5.92;3.55;;;;;;;4.47;97.73;99976.06;1733076;83;21004;-90
2021/10/13 00:57:36;;;;;;;6.10;3.65;;;;;;;4.47;97.61;99978.67;1709969;83;21056;-90
2021/10/13 01:00:07;;;;;;;6.12;3.98;;;;;;;4.48;97.65;99981.69;1693219;85;21492;-89
2021/10/13 01:02:41;;;;;;;7.75;4.10;;;;;;;4.50;97.74;99982.43;1692976;84;21527;-90
2021/10/13 01:05:36;;;;;;;6.40;3.42;;;;;;;4.52;97.74;99983.20;1692183;84;21647;-89
2021/10/13 01:08:16;;;;;;;7.05;3.92;;;;;;;4.49;97.50;99980.75;1693190;84;21058;-89
2021/10/13 01:11:08;;;;;;;7.40;4.12;;;;;;;4.48;97.37;99978.23;1693054;83;21046;-89
2021/10/13 01:14:09;;;;;;;7.78;4.47;;;;;;;4.46;97.32;99984.83;1693078;84;20993;-89
2021/10/13 01:17:09;;;;;;;4.12;3.72;;;;;;;4.42;97.29;99984.16;1691451;85;21074;-89
2021/10/13 01:20:07;;;;;;;8.28;4.08;;;;;;;4.41;97.41;99979.02;1693046;84;21041;-89
2021/10/13 01:23:01;;;;;;;6.20;4.58;;;;;;;4.39;97.38;99984.78;1714324;83;21027;-89
2021/10/13 01:25:54;;;;;;;8.05;4.05;;;;;;;4.34;97.32;99991.53;1723173;82;21048;-90
2021/10/13 01:28:27;;;;;;;5.92;4.25;;;;;;;4.33;97.46;99995.08;1704417;83;21002;-89
2021/10/13 01:31:22;;;;;;;6.83;4.42;;;;;;;4.32;97.42;99993.40;1713058;83;21013;-90
2021/10/13 01:33:57;;;;;;;8.95;5.12;;;;;;;4.29;97.43;99994.86;1689358;83;21040;-90
2021/10/13 01:36:28;;;;;;;7.90;4.37;;;;;;;4.27;97.44;99996.70;1723432;82;20985;-89
2021/10/13 01:38:56;;;;;;;8.80;5.15;;;;;;;4.26;97.31;99995.48;1694744;84;21535;-89
2021/10/13 01:41:25;;;;;;;7.72;4.60;;;;;;;4.21;97.43;99992.66;1723424;83;21016;-90
2021/10/13 01:43:52;;;;;;;10.93;5.25;;;;;;;4.19;97.38;99997.11;1723331;82;20977;-89
2021/10/13 01:46:22;;;;;;;6.97;4.70;;;;;;;3.80;97.24;99937.79;1723639;83;20993;-90
2021/10/13 01:48:51;;;;;;;10.30;5.87;;;;;;;4.13;97.41;100001.80;1730891;83;20977;-89
2021/10/13 01:51:18;;;;;;;7.40;4.60;;;;;;;4.10;97.41;100000.64;1723310;82;21571;-90
2021/10/13 01:53:47;;;;;;;4.45;3.98;;;;;;;4.05;97.36;99997.41;1723583;82;21515;-90
2021/10/13 01:56:15;;;;;;;7.00;3.90;;;;;;;4.04;97.73;99993.96;1723660;82;21535;-89
2021/10/13 01:58:44;;;;;;;7.37;4.30;;;;;;;4.03;97.53;100000.58;1723542;82;20962;-89
2021/10/13 02:01:13;;;;;;;7.97;4.28;;;;;;;4.00;97.60;99998.96;1723339;82;21097;-89
2021/10/13 02:03:40;;;;;;;5.80;4.30;;;;;;;3.98;97.61;100005.58;1723611;82;21447;-90
2021/10/13 02:06:07;;;;;;;6.70;4.05;;;;;;;3.96;97.82;100006.11;1723736;83;21013;-88
2021/10/13 02:08:36;;;;;;;8.45;4.80;;;;;;;3.96;97.86;100011.33;1723522;82;20954;-88
2021/10/13 02:11:05;;;;;;;5.67;3.92;;;;;;;3.94;97.91;100004.48;1723549;82;21022;-89
2021/10/13 02:13:34;;;;;;;5.53;3.70;;;;;;;3.96;98.03;100014.41;1673596;85;21096;-90
2021/10/13 02:16:02;;;;;;;7.55;4.17;;;;;;;3.96;98.03;100011.80;1703830;84;21048;-90
2021/10/13 02:18:30;;;;;;;6.15;4.08;;;;;;;3.97;98.19;100013.47;1703438;83;20936;-90
2021/10/13 02:20:58;;;;;;;5.85;3.70;;;;;;;3.97;98.19;100018.23;1693215;85;21030;-90
2021/10/13 02:23:30;;;;;;;7.53;4.15;;;;;;;4.00;98.25;100021.16;1693133;84;21047;-90
2021/10/13 02:25:58;;;;;;;;;;;;;;;4.02;98.25;100023.23;1695439;84;21137;-89
2021/10/13 02:28:31;;;;;;;5.20;4.20;;;;;;;4.00;97.89;100027.22;1692956;84;20115;-90
2021/10/13 02:30:57;;;;;;;6.00;4.42;;;;;;;3.96;97.95;100028.30;1695695;84;21535;-89
2021/10/13 02:33:24;;;;;;;5.60;3.87;;;;;;;3.94;97.96;100038.42;1673851;85;21009;-89
2021/10/13 02:35:51;;;;;;;7.47;4.33;;;;;;;3.92;97.88;100031.98;1733177;83;21064;-89
2021/10/13 02:38:18;;;;;;;6.83;4.67;;;;;;;3.90;97.82;100033.82;1722861;83;21044;-89
2021/10/13 02:40:44;;;;;;;7.72;4.55;;;;;;;3.87;97.80;100035.73;1720768;83;20989;-89
2021/10/13 02:43:11;;;;;;;7.42;4.33;;;;;;;3.84;97.75;100031.97;1723185;83;21558;-89
2021/10/13 02:45:41;;;;;;;6.90;4.87;;;;;;;3.82;97.74;100043.81;1723648;83;21013;-89
2021/10/13 02:48:15;;;;;;;6.83;4.35;;;;;;;3.79;97.75;100053.09;1723615;83;20981;-89
2021/10/13 02:50:56;;;;;;;8.70;5.75;;;;;;;3.76;97.95;100046.25;1723458;82;21053;-89
2021/10/13 02:53:57;;;;;;;7.45;4.40;;;;;;;3.74;98.04;100053.30;1723077;82;20998;-89
2021/10/13 02:56:27;;;;;;;9.75;4.25;;;;;;;3.72;97.86;100055.62;1723558;83;21111;-90
2021/10/13 02:59:08;;;;;;;5.72;4.25;;;;;;;3.67;97.90;100057.13;1723450;83;21504;-89
2021/10/13 03:01:40;;;;;;;8.85;4.78;;;;;;;3.65;98.01;100060.30;1723323;82;21527;-89
2021/10/13 03:04:14;;;;;;;9.00;4.67;;;;;;;3.64;98.07;100060.35;1723426;82;21290;-88
2021/10/13 03:07:01;;;;;;;7.08;4.55;;;;;;;3.62;98.00;100063.05;1722849;82;21467;-90
2021/10/13 03:09:29;;;;;;;7.20;4.37;;;;;;;3.61;98.00;100074.84;1723189;81;21036;-92
2021/10/13 03:11:59;;;;;;;8.03;4.45;;;;;;;3.61;98.03;100080.06;1723100;83;21120;-91
2021/10/13 03:14:26;;;;;;;8.50;3.95;;;;;;;3.59;98.06;100086.67;1723355;83;20962;-91
2021/10/13 03:16:55;;;;;;;10.78;5.08;;;;;;;3.57;97.98;100082.44;1723195;82;21000;-91
2021/10/13 03:19:23;;;;;;;7.08;4.50;;;;;;;3.55;98.00;100084.27;1723518;83;21429;-91
2021/10/13 03:21:50;;;;;;;8.08;4.75;;;;;;;3.53;97.96;100089.57;1708915;83;21103;-89
2021/10/13 03:24:18;;;;;;;6.00;4.50;;;;;;;3.53;98.17;100090.88;1723674;83;21052;-90
2021/10/13 03:26:49;;;;;;;7.97;4.70;;;;;;;3.50;97.97;100085.34;1723474;83;20994;-90
2021/10/13 03:29:15;;;;;;;6.72;4.85;;;;;;;3.51;98.23;100087.48;1723421;82;21016;-90
2021/10/13 03:31:41;;;;;;;9.75;5.15;;;;;;;3.50;98.01;100091.86;1650307;86;21471;-90
2021/10/13 03:34:16;;;;;;;6.28;4.85;;;;;;;3.49;97.96;100089.34;1714689;83;21011;-90
2021/10/13 03:36:47;;;;;;;6.87;4.03;;;;;;;3.47;97.99;100097.22;1692926;85;21473;-90
2021/10/13 03:39:15;;;;;;;6.15;4.35;;;;;;;3.46;98.01;100098.15;1691693;83;21033;-90
2021/10/13 03:41:42;;;;;;;7.67;4.80;;;;;;;3.46;98.07;100107.73;1693176;84;21505;-90
2021/10/13 03:44:09;;;;;;;5.97;4.05;;;;;;;3.44;97.84;100112.17;1692902;84;21041;-89
2021/10/13 03:46:37;;;;;;;9.10;4.60;;;;;;;3.41;97.82;100123.59;1692982;85;21473;-90
2021/10/13 03:49:04;;;;;;;7.03;4.37;;;;;;;3.38;97.90;100123.72;1693152;85;21022;-90
2021/10/13 03:51:30;;;;;;;10.63;5.80;;;;;;;3.38;98.04;100123.72;1693285;84;21047;-90
2021/10/13 03:53:56;;;;;;;11.05;6.47;;;;;;;3.37;98.13;100122.05;1695775;84;21010;-90
2021/10/13 03:56:22;;;;;;;14.95;7.75;;;;;;;3.37;98.02;100125.11;1673377;86;21028;-89
2021/10/13 03:58:48;;;;;;;14.07;6.90;;;;;;;3.37;98.14;100118.59;1693258;84;21009;-90
2021/10/13 04:01:15;;;;;;;13.85;5.92;;;;;;;3.37;98.16;100125.11;1695845;85;20974;-89
2021/10/13 04:03:41;;;;;;;10.43;6.17;;;;;;;3.35;97.86;100132.16;1673868;85;20984;-90
2021/10/13 04:06:08;;;;;;;7.30;4.95;;;;;;;3.33;97.90;100132.70;1718616;83;21044;-89
2021/10/13 04:08:36;;;;;;;9.65;4.80;;;;;;;3.32;97.99;100129.69;1723344;82;20985;-90
2021/10/13 04:11:02;;;;;;;7.78;4.92;;;;;;;3.32;98.01;100136.20;1723518;82;20988;-90
2021/10/13 04:13:28;;;;;;;8.35;5.40;;;;;;;3.32;98.12;100146.17;1673927;86;21582;-90
2021/10/13 04:15:54;;;;;;;10.98;6.15;;;;;;;3.29;98.00;100153.70;1703708;84;20976;-91
2021/10/13 04:18:21;;;;;;;9.00;4.10;;;;;;;3.27;98.07;100147.70;1730772;82;20989;-90
2021/10/13 04:20:47;;;;;;;7.83;4.58;;;;;;;3.27;98.24;100148.16;1731013;83;20977;-90
2021/10/13 04:23:13;;;;;;;5.95;5.03;;;;;;;3.26;98.43;100151.23;1722003;82;21062;-89
2021/10/13 04:25:39;;;;;;;6.15;4.42;;;;;;;3.26;98.45;100155.61;1723058;83;20970;-90
2021/10/13 04:28:05;;;;;;;6.75;4.33;;;;;;;3.25;98.46;100157.80;1723254;83;21013;-88
2021/10/13 04:30:31;;;;;;;5.47;4.12;;;;;;;3.25;98.55;100159.95;1723398;82;21033;-90
2021/10/13 04:32:57;;;;;;;6.83;4.95;;;;;;;3.23;98.62;100159.19;1723188;83;20985;-89
2021/10/13 04:35:23;;;;;;;9.20;4.83;;;;;;;3.25;98.72;100157.34;1723280;83;20988;-89
2021/10/13 04:37:49;;;;;;;6.25;4.65;;;;;;;3.26;98.86;100155.14;1722999;82;20977;-89
2021/10/13 04:40:15;;;;;;;8.70;5.08;;;;;;;3.27;98.84;100154.22;1723202;82;20955;-90
2021/10/13 04:42:41;;;;;;;10.23;6.42;;;;;;;3.28;98.88;100155.90;1723725;82;21466;-89
2021/10/13 04:45:08;;;;;;;27.20;13.32;;;;;;;3.31;98.86;100159.30;1675682;85;21011;-90
2021/10/13 04:47:34;;;;;;;35.83;17.23;;;;;;;3.33;98.96;100161.39;1673951;86;20972;-90
2021/10/13 04:50:00;;;;;;;20.30;11.45;;;;;;;3.33;98.76;100166.61;1693353;85;21024;-90
2021/10/13 04:52:26;;;;;;;9.90;6.17;;;;;;;3.32;98.64;100160.52;1693277;84;21471;-89
2021/10/13 04:54:51;;;;;;;11.95;5.45;;;;;;;3.29;98.60;100160.66;1693355;84;21033;-90
2021/10/13 04:57:18;;;;;;;7.25;5.20;;;;;;;3.28;98.66;100161.12;1693214;85;21491;-90
2021/10/13 04:59:44;;;;;;;9.55;5.15;;;;;;;3.29;98.57;100166.74;1693353;84;20989;-90
2021/10/13 05:02:10;;;;;;;7.35;4.65;;;;;;;3.27;98.54;100164.65;1675483;85;21048;-90
2021/10/13 05:04:36;;;;;;;6.15;4.33;;;;;;;3.25;98.52;100166.47;1674162;85;21012;-90
2021/10/13 05:07:02;;;;;;;9.13;5.58;;;;;;;3.25;98.50;100168.23;1693114;85;21004;-90
2021/10/13 05:09:28;;;;;;;9.93;4.90;;;;;;;3.23;98.44;100163.10;1693229;84;21550;-89
2021/10/13 05:11:54;;;;;;;7.45;4.47;;;;;;;3.22;98.51;100174.89;1693151;84;21036;-89
2021/10/13 05:14:20;;;;;;;8.28;4.67;;;;;;;3.19;98.52;100171.11;1693430;85;21451;-89
2021/10/13 05:16:46;;;;;;;8.55;5.42;;;;;;;3.17;98.68;100175.11;1693094;84;21350;-90
2021/10/13 05:19:12;;;;;;;5.00;4.25;;;;;;;3.16;98.70;100176.03;1675727;86;20992;-90
2021/10/13 05:21:39;;;;;;;6.62;4.33;;;;;;;3.15;99.03;100179.53;1693259;84;20993;-90
2021/10/13 05:24:08;;;;;;;8.73;5.15;;;;;;;3.16;99.02;100184.28;1675660;86;21004;-89
2021/10/13 05:26:33;;;;;;;8.93;5.65;;;;;;;3.16;98.96;100187.77;1673610;84;21079;-89
2021/10/13 05:28:59;;;;;;;8.23;5.40;;;;;;;3.15;99.00;100192.56;1731252;82;21022;-89
2021/10/13 05:31:25;;;;;;;6.65;4.85;;;;;;;3.15;99.06;100193.87;1675630;86;21039;-89
2021/10/13 05:33:51;;;;;;;10.10;4.85;;;;;;;3.18;99.39;100191.12;1693345;85;22218;-90
2021/10/13 05:36:17;;;;;;;10.58;8.05;;;;;;;3.23;99.39;100197.00;1693421;84;20981;-89
2021/10/13 05:38:43;;;;;;;10.40;6.97;;;;;;;3.27;99.48;100205.53;1693317;84;21535;-89
2021/10/13 05:41:09;;;;;;;13.62;6.50;;;;;;;3.28;99.48;100216.34;1693392;84;21045;-89
2021/10/13 05:43:35;;;;;;;9.90;7.20;;;;;;;3.29;99.46;100219.33;1675595;86;21075;-89
2021/10/13 05:46:01;;;;;;;11.68;7.25;;;;;;;3.33;99.62;100225.29;1731369;82;20979;-89
2021/10/13 05:48:27;;;;;;;10.93;6.03;;;;;;;3.35;99.66;100228.66;1675527;85;21075;-90
2021/10/13 05:50:53;;;;;;;10.15;5.65;;;;;;;3.37;99.71;100232.90;1674042;85;21087;-89
2021/10/13 05:53:21;;;;;;;14.45;8.15;;;;;;;3.39;99.82;100234.13;1693286;84;21012;-89
2021/10/13 05:55:47;;;;;;;14.83;10.13;;;;;;;3.41;99.98;100244.04;1693213;85;21115;-89
2021/10/13 05:58:15;;;;;;;28.60;14.28;;;;;;;3.43;99.79;100246.14;1693175;84;21038;-89
2021/10/13 06:00:41;;;;;;;28.98;14.80;;;;;;;3.45;99.91;100249.50;1692882;84;21121;-88
2021/10/13 06:03:07;;;;;;;22.17;13.62;;;;;;;3.47;99.96;100251.60;1693173;84;21065;-89
2021/10/13 06:05:33;;;;;;;20.68;12.25;;;;;;;3.49;99.96;100251.09;1693368;84;21570;-88
2021/10/13 06:07:59;;;;;;;11.18;8.48;;;;;;;3.49;99.98;100252.39;1694610;84;21029;-88
2021/10/13 06:10:25;;;;;;;7.35;5.90;;;;;;;3.50;100.00;100252.30;1686478;84;21068;-88
2021/10/13 06:12:51;;;;;;;9.08;5.78;;;;;;;3.51;100.00;100257.06;1725429;83;21019;-88
2021/10/13 06:15:19;;;;;;;8.68;6.20;;;;;;;3.52;100.00;100260.92;1703846;83;20997;-90
2021/10/13 06:17:45;;;;;;;9.60;6.20;;;;;;;3.55;100.00;100258.61;1703014;83;21060;-88
2021/10/13 06:20:11;;;;;;;12.18;6.97;;;;;;;3.59;100.00;100270.63;1703849;84;20956;-89
2021/10/13 06:22:40;;;;;;;9.18;6.50;;;;;;;3.62;100.00;100278.33;1703449;83;21037;-90
2021/10/13 06:25:07;;;;;;;10.13;7.53;;;;;;;3.65;100.00;100284.72;1703322;84;21096;-90
2021/10/13 06:27:34;;;;;;;9.48;5.83;;;;;;;3.68;100.00;100282.40;1697074;83;21020;-89
2021/10/13 06:30:00;;;;;;;11.75;6.90;;;;;;;3.70;100.00;100285.80;1695124;85;21001;-90
2021/10/13 06:32:26;;;;;;;10.58;6.55;;;;;;;3.72;100.00;100279.60;1712422;84;21024;-90
2021/10/13 06:34:52;;;;;;;8.98;6.15;;;;;;;3.76;100.00;100281.16;1682296;85;21354;-90
2021/10/13 06:37:18;;;;;;;9.88;5.78;;;;;;;3.81;100.00;100285.31;1712513;84;21024;-89
2021/10/13 06:39:44;;;;;;;8.53;6.90;;;;;;;3.85;100.00;100286.42;1682621;85;21050;-89
2021/10/13 06:42:10;;;;;;;9.35;6.22;;;;;;;3.89;100.00;100293.66;1712294;84;20989;-89
2021/10/13 06:44:36;;;;;;;10.10;6.50;;;;;;;3.93;100.00;100294.73;1682488;85;21098;-89
2021/10/13 06:47:02;;;;;;;8.93;6.42;;;;;;;3.97;100.00;100305.89;1712265;84;21523;-90
2021/10/13 06:49:28;;;;;;;10.58;6.90;;;;;;;4.01;100.00;100310.05;1682611;85;21054;-89
2021/10/13 06:51:54;;;;;;;8.83;6.40;;;;;;;4.04;100.00;100306.45;1712153;84;21040;-88
2021/10/13 06:54:20;;;;;;;14.35;8.78;;;;;;;4.08;100.00;100311.48;1682100;85;21077;-89
2021/10/13 06:56:46;;;;;;;8.45;7.45;;;;;;;4.08;100.00;100312.79;1712363;84;20996;-89
2021/10/13 06:59:12;;;;;;;11.28;8.43;;;;;;;4.10;100.00;100313.55;1732391;82;21068;-89
2021/10/13 07:01:38;;;;;;;9.28;7.58;;;;;;;4.13;100.00;100317.79;1732847;82;20949;-90
2021/10/13 07:04:04;;;;;;;11.05;7.70;;;;;;;4.17;100.00;100318.03;1732777;83;20964;-90
2021/10/13 07:06:30;;;;;;;10.75;7.85;;;;;;;4.20;100.00;100317.42;1732714;82;20972;-88
2021/10/13 07:08:56;;;;;;;10.30;7.28;;;;;;;4.25;100.00;100321.61;1732906;82;21012;-90
2021/10/13 07:11:23;;;;;;;8.85;6.53;;;;;;;4.28;100.00;100324.05;1732400;83;21008;-90
2021/10/13 07:13:49;;;;;;;9.78;7.37;;;;;;;4.30;100.00;100324.38;1732361;83;21055;-89
2021/10/13 07:16:16;;;;;;;10.65;8.00;;;;;;;4.34;100.00;100325.08;1723287;82;20993;-90
2021/10/13 07:18:42;;;;;;;8.53;7.60;;;;;;;4.37;100.00;100332.31;1692797;85;21082;-89
2021/10/13 07:21:08;;;;;;;10.65;8.65;;;;;;;4.39;100.00;100330.48;1673858;85;21024;-89
2021/10/13 07:23:34;;;;;;;9.35;8.35;;;;;;;4.42;100.00;100328.19;1723093;82;20966;-90
2021/10/13 07:26:00;;;;;;;10.38;8.33;;;;;;;4.45;100.00;100328.05;1723505;83;21005;-89
2021/10/13 07:28:27;;;;;;;10.15;8.93;;;;;;;4.48;100.00;100338.36;1673491;85;20988;-88
2021/10/13 07:30:53;;;;;;;10.95;7.72;;;;;;;4.52;100.00;100341.67;1723324;83;21535;-89
2021/10/13 07:33:19;;;;;;;9.38;7.70;;;;;;;4.56;100.00;100338.83;1723099;83;21061;-89
2021/10/13 07:35:45;;;;;;;10.48;7.75;;;;;;;4.60;100.00;100346.06;1723155;82;21057;-89
2021/10/13 07:38:14;;;;;;;15.88;8.80;;;;;;;4.63;100.00;100340.23;1723346;83;21024;-89
2021/10/13 07:40:40;;;;;;;12.18;8.53;;;;;;;4.68;100.00;100350.02;1722798;82;21112;-86
2021/10/13 07:43:08;;;;;;;12.63;7.80;;;;;;;4.72;100.00;100350.71;1648872;86;21055;-89
2021/10/13 07:45:35;;;;;;;9.08;7.42;;;;;;;4.74;100.00;100354.55;1723053;83;21378;-88
2021/10/13 07:48:01;;;;;;;11.20;7.47;;;;;;;4.78;100.00;100356.11;1723275;82;21013;-89
2021/10/13 07:50:28;;;;;;;8.90;7.50;;;;;;;4.80;100.00;100362.94;1723443;83;21571;-88
2021/10/13 07:52:55;;;;;;;14.25;8.33;;;;;;;4.82;100.00;100361.58;1723038;82;21014;-89
2021/10/13 07:55:21;;;;;;;9.33;8.15;;;;;;;4.86;100.00;100368.34;1723198;83;21084;-89
2021/10/13 07:57:47;;;;;;;14.83;9.53;;;;;;;4.91;100.00;100367.67;1723060;82;21454;-89
2021/10/13 08:00:17;;;;;;;10.65;9.03;;;;;;;4.95;100.00;100373.14;1673759;85;21518;-89
2021/10/13 08:02:48;;;;;;;8.68;7.62;;;;;;;5.00;100.00;100369.84;1720665;83;21044;-88
2021/10/13 08:05:17;;;;;;;9.93;8.93;;;;;;;5.04;100.00;100375.31;1711765;83;21322;-88
2021/10/13 08:07:45;;;;;;;10.98;8.45;;;;;;;5.09;100.00;100374.61;1682257;85;21095;-90
2021/10/13 08:10:13;;;;;;;14.18;9.25;;;;;;;5.14;100.00;100367.39;1711918;84;21020;-87
2021/10/13 08:12:39;;;;;;;11.73;8.83;;;;;;;5.20;100.00;100371.48;1682085;85;21085;-91
2021/10/13 08:15:06;;;;;;;9.10;8.20;;;;;;;5.23;100.00;100371.33;1712232;84;21530;-90
2021/10/13 08:17:32;;;;;;;12.40;8.85;;;;;;;5.27;100.00;100374.64;1682211;85;21045;-89
2021/10/13 08:20:03;;;;;;;13.78;9.00;;;;;;;5.31;100.00;100375.70;1712374;84;21010;-90
2021/10/13 08:22:27;;;;;;;12.13;8.43;;;;;;;5.36;100.00;100376.34;1681734;85;21561;-91
2021/10/13 08:24:53;;;;;;;10.25;8.08;;;;;;;5.40;100.00;100376.56;1712542;84;21052;-90
2021/10/13 08:27:19;;;;;;;9.80;8.25;;;;;;;5.46;100.00;100379.31;1682039;85;21072;-90
2021/10/13 08:29:45;;;;;;;8.90;7.45;;;;;;;5.51;100.00;100381.25;1712299;84;21662;-89
2021/10/13 08:32:11;;;;;;;11.57;9.30;;;;;;;5.55;100.00;100380.63;1682358;85;21062;-91
2021/10/13 08:34:37;;;;;;;8.58;7.17;;;;;;;5.60;100.00;100374.23;1712161;84;20954;-88
2021/10/13 08:37:05;;;;;;;8.05;6.65;;;;;;;5.65;100.00;100377.45;1684142;85;21002;-91
2021/10/13 08:39:31;;;;;;;10.82;7.37;;;;;;;5.70;100.00;100375.92;1722227;83;21026;-90
2021/10/13 08:41:57;;;;;;;17.25;9.15;;;;;;;5.76;100.00;100378.23;1674998;85;21095;-91
2021/10/13 08:44:23;;;;;;;14.50;7.95;;;;;;;5.85;100.00;100379.50;1730724;82;20987;-91
2021/10/13 08:46:49;;;;;;;9.65;8.00;;;;;;;5.96;100.00;100379.00;1717370;82;20967;-91
2021/10/13 08:49:15;;;;;;;8.00;7.08;;;;;;;6.07;100.00;100384.03;1723627;82;21442;-90
2021/10/13 08:51:41;;;;;;;8.45;6.25;;;;;;;6.17;100.00;100380.94;1703519;83;21546;-90
2021/10/13 08:54:13;;;;;;;8.78;6.87;;;;;;;6.24;100.00;100386.22;1710112;83;21406;-90
2021/10/13 08:56:35;;;;;;;8.35;6.65;;;;;;;6.28;100.00;100387.74;1726433;82;21583;-90
2021/10/13 08:59:02;;;;;;;7.55;6.40;;;;;;;6.31;100.00;100396.28;1702482;82;20957;-89
2021/10/13 09:01:28;;;;;;;9.08;5.75;;;;;;;6.34;100.00;100394.81;1733295;82;21000;-91
2021/10/13 09:04:00;;;;;;;6.85;6.03;;;;;;;6.39;100.00;100391.12;1735094;82;21009;-91
2021/10/13 09:06:30;;;;;;;6.58;5.67;;;;;;;6.42;100.00;100393.10;1744795;82;20965;-88
2021/10/13 09:09:04;;;;;;;8.40;6.35;;;;;;;6.52;100.00;100401.31;1728561;82;21009;-91
2021/10/13 09:11:44;;;;;;;6.70;5.35;;;;;;;6.60;100.00;100391.24;1739955;82;21483;-90
2021/10/13 09:14:18;;;;;;;8.38;5.70;;;;;;;6.72;100.00;100389.27;1741584;82;21055;-88
2021/10/13 09:17:10;;;;;;;7.08;6.40;;;;;;;6.83;100.00;100398.30;1724056;82;20975;-88
2021/10/13 09:19:44;;;;;;;6.87;5.30;;;;;;;6.86;100.00;100395.52;1705134;83;21076;-87
2021/10/13 09:22:14;;;;;;;8.85;6.50;;;;;;;6.88;99.91;100402.38;1728431;82;21030;-91
2021/10/13 09:24:44;;;;;;;9.28;6.85;;;;;;;6.91;100.00;100395.64;1751788;82;20983;-89
2021/10/13 09:27:30;;;;;;;6.25;5.42;;;;;;;6.98;100.00;100404.02;1709856;83;21463;-90
2021/10/13 09:30:07;;;;;;;10.53;5.80;;;;;;;7.01;99.82;100404.69;1735345;82;21596;-87
2021/10/13 09:32:36;;;;;;;8.13;6.03;;;;;;;7.02;99.11;100405.52;1740157;82;21024;-88
2021/10/13 09:35:04;;;;;;;7.05;5.92;;;;;;;6.87;99.20;100387.54;1750236;82;21005;-86
2021/10/13 09:37:48;;;;;;;8.68;5.72;;;;;;;7.03;99.48;100411.98;1750848;82;20972;-89
2021/10/13 09:40:31;;;;;;;7.62;5.33;;;;;;;7.08;99.50;100406.97;1740610;82;21005;-86
2021/10/13 09:43:00;;;;;;;7.05;5.67;;;;;;;7.13;99.61;100409.68;1723638;81;21468;-85
2021/10/13 09:45:30;;;;;;;6.15;5.40;;;;;;;7.17;99.53;100413.84;1722668;83;21884;-88
2021/10/13 09:48:04;;;;;;;6.95;4.70;;;;;;;7.19;99.34;100417.21;1723419;82;21013;-88
2021/10/13 09:50:44;;;;;;;7.40;4.72;;;;;;;7.22;99.30;100419.66;1722944;83;21522;-87
2021/10/13 09:53:23;;;;;;;4.42;4.03;;;;;;;7.28;99.58;100426.34;1723264;82;21618;-89
2021/10/13 09:55:50;;;;;;;5.78;4.65;;;;;;;7.31;99.24;100427.48;1701799;83;21044;-89
2021/10/13 09:58:34;;;;;;;6.62;4.37;;;;;;;7.37;99.26;100432.83;1703568;83;20969;-86
2021/10/13 10:01:12;;;;;;;8.68;5.00;;;;;;;7.43;99.02;100430.70;1669992;86;21051;-87
2021/10/13 10:03:43;;;;;;;5.42;3.98;;;;;;;7.52;99.32;100436.73;1692800;85;21536;-88
2021/10/13 10:06:10;;;;;;;6.10;4.08;;;;;;;7.62;98.96;100437.05;1692574;84;21063;-87
2021/10/13 10:08:54;;;;;;;6.33;3.67;;;;;;;7.68;98.66;100435.84;1692552;85;21027;-89
2021/10/13 10:11:30;;;;;;;4.33;3.65;;;;;;;7.71;98.32;100435.67;1679340;84;21058;-88
2021/10/13 10:13:58;;;;;;;8.80;4.95;;;;;;;7.78;98.92;100432.22;1692637;84;20998;-87
2021/10/13 10:16:33;;;;;;;5.72;4.45;;;;;;;7.93;100.00;100429.97;1693023;84;21094;-86
2021/10/13 10:19:23;;;;;;;6.40;4.00;;;;;;;8.04;99.14;100432.81;1692954;85;21023;-88
2021/10/13 10:22:12;;;;;;;8.88;4.85;;;;;;;8.11;98.72;100432.81;1692897;85;21050;-88
2021/10/13 10:24:50;;;;;;;8.28;4.60;;;;;;;8.19;98.47;100427.08;1695833;84;21026;-89
2021/10/13 10:27:27;;;;;;;5.85;3.80;;;;;;;8.23;97.95;100429.92;1699193;84;21501;-88
2021/10/13 10:30:13;;;;;;;8.95;3.58;;;;;;;8.25;97.74;100428.02;1703529;84;20993;-89
2021/10/13 10:32:43;;;;;;;5.60;3.60;;;;;;;8.31;97.51;100429.44;1702685;83;20987;-88
2021/10/13 10:35:13;;;;;;;6.12;4.80;;;;;;;8.36;97.30;100426.91;1703178;83;20978;-88
2021/10/13 10:37:51;;;;;;;7.97;3.80;;;;;;;8.41;97.64;100435.84;1701932;83;21030;-86
2021/10/13 10:40:22;;;;;;;4.80;3.52;;;;;;;8.56;97.24;100436.70;1703468;84;21525;-88
2021/10/13 10:42:59;;;;;;;4.75;3.55;;;;;;;8.65;96.88;100433.47;1702829;84;20996;-88
2021/10/13 10:45:34;;;;;;;4.60;3.77;;;;;;;8.66;96.52;100433.39;1721662;83;21010;-87
2021/10/13 10:48:05;;;;;;;8.85;5.53;;;;;;;8.63;95.40;100429.63;1728931;82;21090;-88
2021/10/13 10:50:54;;;;;;;7.55;4.30;;;;;;;8.57;95.38;100432.64;1721197;82;21483;-88
2021/10/13 10:53:39;;;;;;;6.30;3.50;;;;;;;8.51;94.59;100425.61;1721985;82;21065;-88
2021/10/13 10:56:25;;;;;;;5.70;2.92;;;;;;;8.45;95.14;100425.51;1720734;83;21040;-87
2021/10/13 10:59:05;;;;;;;5.92;3.08;;;;;;;8.40;94.98;100420.55;1721548;82;21045;-89
2021/10/13 11:01:31;;;;;;;3.35;2.47;;;;;;;8.39;95.54;100429.39;1721701;82;20986;-90
2021/10/13 11:03:57;;;;;;;4.12;2.50;;;;;;;8.45;95.67;100432.92;1723200;83;21005;-87
2021/10/13 11:06:28;;;;;;;4.80;2.15;;;;;;;8.57;96.24;100435.75;1708558;83;23000;-89
2021/10/13 11:09:01;;;;;;;4.17;2.62;;;;;;;8.70;96.29;100444.56;1673758;86;21040;-89
2021/10/13 11:11:36;;;;;;;4.80;2.65;;;;;;;8.78;95.41;100440.96;1722977;82;21066;-87
2021/10/13 11:14:24;;;;;;;5.90;3.45;;;;;;;8.84;94.80;100445.84;1722518;81;21469;-88
2021/10/13 11:16:55;;;;;;;4.90;3.58;;;;;;;8.88;95.13;100446.05;1723359;83;21548;-90
2021/10/13 11:19:31;;;;;;;3.12;2.83;;;;;;;9.02;96.15;100446.47;1723330;82;21015;-87
2021/10/13 11:22:03;;;;;;;4.45;3.10;;;;;;;9.11;95.65;100446.33;1723383;82;21010;-88
2021/10/13 11:24:32;;;;;;;4.83;2.70;;;;;;;9.16;95.23;100450.36;1722606;82;20995;-88
2021/10/13 11:26:59;;;;;;;7.00;3.47;;;;;;;9.22;95.34;100451.77;1723191;82;21030;-86
2021/10/13 11:29:33;;;;;;;5.50;2.75;;;;;;;9.21;94.10;100447.89;1723669;83;21030;-85
2021/10/13 11:32:14;;;;;;;5.25;2.83;;;;;;;9.15;93.77;100443.89;1675021;86;20996;-88
2021/10/13 11:34:44;;;;;;;3.53;2.80;;;;;;;9.10;94.48;100443.33;1731316;81;21492;-89
2021/10/13 11:37:10;;;;;;;6.37;2.70;;;;;;;9.08;94.31;100442.58;1675158;86;21023;-88
2021/10/13 11:39:41;;;;;;;2.77;1.82;;;;;;;9.06;93.96;100445.33;1674103;85;21032;-87
2021/10/13 11:42:15;;;;;;;2.77;2.20;;;;;;;9.04;93.51;100441.09;1692218;84;21049;-87
2021/10/13 11:44:48;;;;;;;4.22;2.20;;;;;;;9.01;92.91;100447.87;1673945;85;21058;-87